createdAt,value
2022-09-10T00:01:36.195Z,100451.22
2022-09-10T00:04:23.464Z,100449.22
2022-09-10T00:07:12.107Z,100447.69
2022-09-10T00:09:59.306Z,100458.50
2022-09-10T00:12:48.186Z,100465.03
2022-09-10T00:15:43.134Z,100451.97
2022-09-10T00:18:31.241Z,100462.50
2022-09-10T00:21:20.826Z,100464.63
2022-09-10T00:24:07.937Z,100462.28
2022-09-10T00:26:55.067Z,100462.56
2022-09-10T00:29:42.277Z,100465.44
2022-09-10T00:32:29.485Z,100453.44
2022-09-10T00:35:16.772Z,100467.25
2022-09-10T00:38:04.318Z,100467.38
2022-09-10T00:40:51.525Z,100466.34
2022-09-10T00:44:09.258Z,100464.19
2022-09-10T00:46:56.465Z,100470.72
2022-09-10T00:49:51.572Z,100468.09
2022-09-10T00:52:39.933Z,100467.53
2022-09-10T00:55:28.347Z,100474.66
2022-09-10T00:58:18.317Z,100459.06
2022-09-10T01:01:06.319Z,100463.72
2022-09-10T01:03:54.752Z,100452.69
2022-09-10T01:06:45.412Z,100460.41
2022-09-10T01:09:32.872Z,100461.00
2022-09-10T01:12:36.122Z,100463.13
2022-09-10T01:15:57.476Z,100457.06
2022-09-10T01:19:35.803Z,100455.88
2022-09-10T01:22:42.242Z,100458.13
2022-09-10T01:25:54.881Z,100461.22
2022-09-10T01:28:50.896Z,100458.38
2022-09-10T01:31:49.351Z,100458.13
2022-09-10T01:35:14.558Z,100463.84
2022-09-10T01:38:05.035Z,100455.63
2022-09-10T01:40:54.152Z,100456.22
2022-09-10T01:43:41.865Z,100456.44
2022-09-10T01:46:44.949Z,100449.78
2022-09-10T01:50:06.440Z,100446.16
2022-09-10T01:53:30.856Z,100449.00
2022-09-10T01:56:28.824Z,100442.34
2022-09-10T01:59:37.012Z,100440.81
2022-09-10T02:02:30.085Z,100439.84
2022-09-10T02:05:20.545Z,100447.44
2022-09-10T02:08:12.418Z,100438.41
2022-09-10T02:11:09.098Z,100441.53
2022-09-10T02:13:58.216Z,100435.00
2022-09-10T02:16:50.249Z,100444.03
2022-09-10T02:19:37.703Z,100442.72
2022-09-10T02:22:24.990Z,100432.03
2022-09-10T02:25:12.223Z,100440.97
2022-09-10T02:27:59.553Z,100443.31
2022-09-10T02:30:48.162Z,100447.56
2022-09-10T02:33:35.865Z,100448.41
2022-09-10T02:36:25.876Z,100446.53
2022-09-10T02:39:13.076Z,100450.69
2022-09-10T02:42:00.312Z,100444.38
2022-09-10T02:44:47.792Z,100449.00
2022-09-10T02:47:35.010Z,100442.63
2022-09-10T02:50:24.270Z,100443.50
2022-09-10T02:53:13.225Z,100445.22
2022-09-10T02:56:00.922Z,100438.69
2022-09-10T02:58:48.702Z,100445.69
2022-09-10T03:01:36.364Z,100444.75
2022-09-10T03:04:23.607Z,100425.97
2022-09-10T03:07:11.864Z,100437.63
2022-09-10T03:09:59.137Z,100432.16
2022-09-10T03:12:47.908Z,100438.22
2022-09-10T03:15:35.129Z,100435.50
2022-09-10T03:18:23.035Z,100431.69
2022-09-10T03:21:22.157Z,100438.38
2022-09-10T03:24:10.305Z,100440.66
2022-09-10T03:26:57.778Z,100438.38
2022-09-10T03:29:45.224Z,100437.69
2022-09-10T03:32:32.426Z,100434.94
2022-09-10T03:35:19.616Z,100443.38
2022-09-10T03:38:06.834Z,100437.91
2022-09-10T03:40:54.432Z,100444.91
2022-09-10T03:43:41.662Z,100439.59
2022-09-10T03:46:28.884Z,100423.72
2022-09-10T03:49:16.134Z,100438.53
2022-09-10T03:52:03.661Z,100437.09
2022-09-10T03:54:51.045Z,100446.94
2022-09-10T03:57:38.875Z,100439.47
2022-09-10T04:00:26.996Z,100446.00
2022-09-10T04:03:14.537Z,100440.53
2022-09-10T04:06:01.808Z,100436.34
2022-09-10T04:08:50.586Z,100430.88
2022-09-10T04:11:38.061Z,100437.81
2022-09-10T04:14:26.229Z,100446.84
2022-09-10T04:17:13.449Z,100441.09
2022-09-10T04:20:00.693Z,100444.69
2022-09-10T04:22:49.068Z,100446.25
2022-09-10T04:25:36.319Z,100448.38
2022-09-10T04:28:24.066Z,100447.19
2022-09-10T04:31:11.544Z,100441.88
2022-09-10T04:34:01.873Z,100455.03
2022-09-10T04:36:49.891Z,100446.09
2022-09-10T04:39:37.219Z,100440.53
2022-09-10T04:42:24.854Z,100446.25
2022-09-10T04:45:12.040Z,100443.03
2022-09-10T04:48:01.632Z,100456.91
2022-09-10T04:51:14.857Z,100444.53
2022-09-10T04:53:59.328Z,100455.25
2022-09-10T04:56:47.452Z,100454.75
2022-09-10T04:59:34.910Z,100459.41
2022-09-10T05:02:22.191Z,100459.91
2022-09-10T05:05:09.427Z,100453.84
2022-09-10T05:07:56.604Z,100457.66
2022-09-10T05:10:45.288Z,100452.56
2022-09-10T05:13:32.494Z,100455.03
2022-09-10T05:16:21.128Z,100447.44
2022-09-10T05:19:08.680Z,100451.50
2022-09-10T05:21:55.937Z,100460.25
2022-09-10T05:24:43.983Z,100462.53
2022-09-10T05:27:31.183Z,100455.66
2022-09-10T05:30:18.766Z,100460.63
2022-09-10T05:33:05.963Z,100468.59
2022-09-10T05:35:53.192Z,100463.75
2022-09-10T05:38:40.942Z,100465.75
2022-09-10T05:41:28.437Z,100465.28
2022-09-10T05:44:17.457Z,100468.63
2022-09-10T05:47:04.722Z,100464.84
2022-09-10T05:52:26.707Z,100472.78
2022-09-10T05:55:14.209Z,100480.78
2022-09-10T05:58:02.789Z,100472.97
2022-09-10T06:00:51.185Z,100486.38
2022-09-10T06:03:38.401Z,100472.50
2022-09-10T06:06:28.108Z,100481.88
2022-09-10T06:09:15.333Z,100492.81
2022-09-10T06:12:03.261Z,100490.09
2022-09-10T06:14:50.469Z,100487.81
2022-09-10T06:17:38.313Z,100491.00
2022-09-10T06:20:25.633Z,100488.38
2022-09-10T06:23:14.609Z,100501.47
2022-09-10T06:26:08.171Z,100497.09
2022-09-10T06:28:56.724Z,100503.84
2022-09-10T06:31:44.163Z,100506.47
2022-09-10T06:34:31.499Z,100508.75
2022-09-10T06:37:18.872Z,100512.19
2022-09-10T06:40:06.871Z,100520.03
2022-09-10T06:42:54.602Z,100515.25
2022-09-10T06:45:41.848Z,100515.41
2022-09-10T06:48:48.390Z,100518.94
2022-09-10T06:51:35.713Z,100521.22
2022-09-10T06:54:22.973Z,100530.88
2022-09-10T06:57:10.202Z,100525.88
2022-09-10T06:59:58.646Z,100532.38
2022-09-10T07:02:45.840Z,100534.78
2022-09-10T07:05:33.857Z,100537.16
2022-09-10T07:08:22.340Z,100539.88
2022-09-10T07:11:12.804Z,100543.09
2022-09-10T07:14:01.330Z,100537.16
2022-09-10T07:16:51.258Z,100536.97
2022-09-10T07:19:38.537Z,100541.03
2022-09-10T07:22:25.748Z,100539.63
2022-09-10T07:25:13.021Z,100543.66
2022-09-10T07:28:01.170Z,100547.31
2022-09-10T07:30:48.925Z,100548.88
2022-09-10T07:33:36.146Z,100542.44
2022-09-10T07:36:24.581Z,100549.00
2022-09-10T07:39:11.805Z,100542.22
2022-09-10T07:42:00.228Z,100542.31
2022-09-10T07:44:47.422Z,100547.69
2022-09-10T07:47:34.623Z,100543.75
2022-09-10T07:50:21.902Z,100555.50
2022-09-10T07:53:09.111Z,100551.97
2022-09-10T07:56:05.313Z,100555.47
2022-09-10T07:58:53.773Z,100553.63
2022-09-10T08:01:41.090Z,100554.78
2022-09-10T08:04:36.481Z,100557.28
2022-09-10T08:07:23.929Z,100559.03
2022-09-10T08:10:11.470Z,100557.94
2022-09-10T08:12:59.342Z,100559.06
2022-09-10T08:15:46.584Z,100558.69
2022-09-10T08:18:35.538Z,100556.13
2022-09-10T08:21:22.782Z,100561.50
2022-09-10T08:24:10.547Z,100561.78
2022-09-10T08:26:57.760Z,100564.25
2022-09-10T08:29:44.965Z,100567.50
2022-09-10T08:32:34.786Z,100573.31
2022-09-10T08:35:22.110Z,100563.34
2022-09-10T08:38:10.161Z,100565.97
2022-09-10T08:40:59.176Z,100571.94
2022-09-10T08:43:58.138Z,100567.13
2022-09-10T08:47:00.153Z,100576.28
2022-09-10T08:49:53.796Z,100578.31
2022-09-10T08:52:48.658Z,100582.69
2022-09-10T08:55:40.993Z,100577.25
2022-09-10T08:58:57.435Z,100588.41
2022-09-10T09:01:51.112Z,100573.69
2022-09-10T09:04:55.362Z,100580.91
2022-09-10T09:07:42.682Z,100580.53
2022-09-10T09:10:43.252Z,100584.03
2022-09-10T09:14:08.074Z,100580.38
2022-09-10T09:17:17.135Z,100578.50
2022-09-10T09:20:22.944Z,100585.72
2022-09-10T09:23:27.690Z,100583.06
2022-09-10T09:26:15.830Z,100580.81
2022-09-10T09:29:12.708Z,100582.22
2022-09-10T09:32:03.426Z,100578.91
2022-09-10T09:35:25.332Z,100578.56
2022-09-10T09:38:33.957Z,100594.78
2022-09-10T09:41:21.094Z,100581.56
2022-09-10T09:44:36.457Z,100585.53
2022-09-10T09:47:23.721Z,100588.19
2022-09-10T09:50:11.986Z,100591.53
2022-09-10T09:52:59.278Z,100587.16
2022-09-10T09:55:53.753Z,100590.50
2022-09-10T09:58:46.965Z,100590.56
2022-09-10T10:01:39.289Z,100587.13
2022-09-10T10:04:30.889Z,100589.19
2022-09-10T10:07:25.857Z,100586.56
2022-09-10T10:10:23.984Z,100579.41
2022-09-10T10:13:21.460Z,100570.63
2022-09-10T10:16:14.602Z,100572.88
2022-09-10T10:19:02.169Z,100544.03
2022-09-10T10:21:49.585Z,100569.34
2022-09-10T10:24:36.822Z,100572.66
2022-09-10T10:27:35.639Z,100571.50
2022-09-10T10:30:24.861Z,100559.84
2022-09-10T10:33:19.144Z,100570.41
2022-09-10T10:36:26.145Z,100566.97
2022-09-10T10:39:24.553Z,100566.66
2022-09-10T10:42:31.892Z,100570.22
2022-09-10T10:45:40.352Z,100571.94
2022-09-10T10:49:04.678Z,100570.94
2022-09-10T10:52:13.742Z,100571.28
2022-09-10T10:55:16.001Z,100576.63
2022-09-10T10:58:36.425Z,100572.16
2022-09-10T11:01:29.119Z,100572.91
2022-09-10T11:04:16.304Z,100568.66
2022-09-10T11:07:18.516Z,100564.09
2022-09-10T11:10:34.162Z,100561.78
2022-09-10T11:13:34.782Z,100564.22
2022-09-10T11:16:41.328Z,100570.03
2022-09-10T11:19:44.410Z,100559.13
2022-09-10T11:22:42.460Z,100569.00
2022-09-10T11:25:37.493Z,100559.63
2022-09-10T11:28:38.144Z,100563.88
2022-09-10T11:31:33.750Z,100558.44
2022-09-10T11:34:41.137Z,100553.00
2022-09-10T11:37:46.925Z,100550.63
2022-09-10T11:40:59.032Z,100549.63
2022-09-10T11:44:16.238Z,100557.69
2022-09-10T11:47:15.298Z,100551.22
2022-09-10T11:50:22.037Z,100548.09
2022-09-10T11:53:15.017Z,100560.66
2022-09-10T11:56:08.250Z,100554.56
2022-09-10T11:59:10.586Z,100566.09
2022-09-10T12:02:38.222Z,100565.41
2022-09-10T12:05:44.621Z,100568.06
2022-09-10T12:08:51.153Z,100570.63
2022-09-10T12:12:05.812Z,100567.03
2022-09-10T12:14:53.907Z,100556.25
2022-09-10T12:17:43.521Z,100557.19
2022-09-10T12:20:43.004Z,100558.63
2022-09-10T12:23:32.405Z,100553.56
2022-09-10T12:26:20.566Z,100559.72
2022-09-10T12:29:27.717Z,100555.47
2022-09-10T12:32:21.105Z,100561.56
2022-09-10T12:35:34.521Z,100556.09
2022-09-10T12:38:46.217Z,100553.13
2022-09-10T12:41:36.001Z,100559.13
2022-09-10T12:44:29.696Z,100546.16
2022-09-10T12:47:16.832Z,100549.31
2022-09-10T12:50:17.690Z,100537.13
2022-09-10T12:53:31.218Z,100538.09
2022-09-10T12:56:50.757Z,100544.88
2022-09-10T12:59:54.993Z,100558.47
2022-09-10T13:03:06.964Z,100566.47
2022-09-10T13:06:04.220Z,100565.94
2022-09-10T13:08:51.924Z,100569.34
2022-09-10T13:11:45.730Z,100567.28
2022-09-10T13:14:39.458Z,100571.03
2022-09-10T13:17:41.081Z,100572.13
2022-09-10T13:20:32.797Z,100569.06
2022-09-10T13:23:47.705Z,100557.28
2022-09-10T13:26:49.840Z,100549.34
2022-09-10T13:29:40.520Z,100554.56
2022-09-10T13:32:48.062Z,100548.41
2022-09-10T13:35:50.160Z,100542.69
2022-09-10T13:38:37.493Z,100555.91
2022-09-10T13:41:48.903Z,100556.59
2022-09-10T13:45:02.279Z,100560.19
2022-09-10T13:48:14.911Z,100557.56
2022-09-10T13:51:27.949Z,100549.72
2022-09-10T13:54:31.235Z,100563.63
2022-09-10T13:57:24.620Z,100575.75
2022-09-10T14:00:25.534Z,100564.81
2022-09-10T14:03:22.374Z,100565.66
2022-09-10T14:06:12.225Z,100572.19
2022-09-10T14:09:04.790Z,100572.19
2022-09-10T14:11:52.612Z,100567.56
2022-09-10T14:14:44.918Z,100561.81
2022-09-10T14:17:44.569Z,100571.94
2022-09-10T14:20:34.505Z,100570.53
2022-09-10T14:23:21.733Z,100564.97
2022-09-10T14:26:10.158Z,100559.25
2022-09-10T14:29:00.910Z,100565.50
2022-09-10T14:31:48.609Z,100558.72
2022-09-10T14:34:36.189Z,100558.47
2022-09-10T14:37:37.975Z,100560.53
2022-09-10T14:40:25.215Z,100553.25
2022-09-10T14:43:31.882Z,100560.97
2022-09-10T14:46:49.163Z,100557.84
2022-09-10T14:49:38.589Z,100557.19
2022-09-10T14:52:25.625Z,100551.56
2022-09-10T14:55:12.820Z,100554.97
2022-09-10T14:58:00.108Z,100553.72
2022-09-10T15:00:47.672Z,100553.81
2022-09-10T15:03:37.850Z,100560.72
2022-09-10T15:06:26.656Z,100557.19
2022-09-10T15:09:14.920Z,100554.53
2022-09-10T15:12:26.717Z,100560.78
2022-09-10T15:15:17.459Z,100567.22
2022-09-10T15:18:12.017Z,100561.91
2022-09-10T15:21:07.029Z,100562.91
2022-09-10T15:23:54.213Z,100549.22
2022-09-10T15:26:42.506Z,100543.63
2022-09-10T15:29:29.721Z,100540.31
2022-09-10T15:32:18.118Z,100541.06
2022-09-10T15:35:06.745Z,100551.16
2022-09-10T15:37:53.907Z,100555.69
2022-09-10T15:40:41.207Z,100551.72
2022-09-10T15:43:28.405Z,100548.56
2022-09-10T15:46:17.201Z,100546.31
2022-09-10T15:49:04.453Z,100559.38
2022-09-10T15:51:51.636Z,100564.34
2022-09-10T15:54:38.877Z,100563.03
2022-09-10T15:57:26.057Z,100566.53
2022-09-10T16:00:13.861Z,100558.69
2022-09-10T16:03:01.684Z,100570.41
2022-09-10T16:05:48.941Z,100578.78
2022-09-10T16:08:36.193Z,100587.00
2022-09-10T16:11:24.940Z,100589.56
2022-09-10T16:14:15.718Z,100589.13
2022-09-10T16:17:10.162Z,100589.97
2022-09-10T16:19:57.549Z,100593.22
2022-09-10T16:22:44.748Z,100594.88
2022-09-10T16:25:32.065Z,100592.38
2022-09-10T16:28:19.376Z,100599.06
2022-09-10T16:31:27.386Z,100592.00
2022-09-10T16:34:18.307Z,100589.25
2022-09-10T16:37:06.552Z,100587.13
2022-09-10T16:39:53.872Z,100584.38
2022-09-10T16:42:41.146Z,100597.03
2022-09-10T16:45:30.058Z,100597.03
2022-09-10T16:48:17.312Z,100589.91
2022-09-10T16:51:10.215Z,100598.34
2022-09-10T16:54:02.716Z,100599.31
2022-09-10T16:56:50.680Z,100601.81
2022-09-10T16:59:37.885Z,100607.16
2022-09-10T17:02:25.234Z,100597.19
2022-09-10T17:05:13.127Z,100606.13
2022-09-10T17:08:00.418Z,100613.84
2022-09-10T17:10:48.438Z,100613.00
2022-09-10T17:13:38.856Z,100612.66
2022-09-10T17:16:26.088Z,100612.66
2022-09-10T17:19:23.307Z,100612.66
2022-09-10T17:22:10.976Z,100620.88
2022-09-10T17:24:58.218Z,100620.38
2022-09-10T17:27:45.437Z,100627.38
2022-09-10T17:30:32.677Z,100627.75
2022-09-10T17:33:19.873Z,100625.72
2022-09-10T17:36:07.355Z,100629.78
2022-09-10T17:38:55.448Z,100627.75
2022-09-10T17:41:43.066Z,100620.03
2022-09-10T17:44:30.256Z,100630.50
2022-09-10T17:47:17.475Z,100632.63
2022-09-10T17:50:05.019Z,100645.75
2022-09-10T17:52:52.608Z,100644.56
2022-09-10T17:55:39.837Z,100659.28
2022-09-10T17:58:27.581Z,100664.19
2022-09-10T18:01:26.346Z,100660.38
2022-09-10T18:04:14.144Z,100669.06
2022-09-10T18:07:01.380Z,100673.22
2022-09-10T18:09:48.846Z,100683.34
2022-09-10T18:12:36.105Z,100681.78
2022-09-10T18:15:23.794Z,100696.19
2022-09-10T18:18:10.990Z,100697.09
2022-09-10T18:20:58.216Z,100702.81
2022-09-10T18:23:57.484Z,100712.09
2022-09-10T18:26:47.450Z,100685.06
2022-09-10T18:29:34.914Z,100715.88
2022-09-10T18:32:22.130Z,100720.16
2022-09-10T18:35:09.341Z,100722.75
2022-09-10T18:37:57.158Z,100725.94
2022-09-10T18:40:44.401Z,100740.09
2022-09-10T18:43:33.730Z,100747.78
2022-09-10T18:46:23.388Z,100740.00
2022-09-10T18:49:20.788Z,100746.16
2022-09-10T18:52:12.707Z,100760.56
2022-09-10T18:54:59.893Z,100760.78
2022-09-10T18:57:47.321Z,100756.75
2022-09-10T19:00:34.555Z,100763.06
2022-09-10T19:03:21.936Z,100766.47
2022-09-10T19:06:14.986Z,100778.69
2022-09-10T19:09:05.889Z,100777.19
2022-09-10T19:11:54.916Z,100774.91
2022-09-10T19:14:42.377Z,100782.88
2022-09-10T19:17:29.584Z,100787.50
2022-09-10T19:20:16.805Z,100788.56
2022-09-10T19:23:04.021Z,100798.06
2022-09-10T19:25:56.117Z,100801.41
2022-09-10T19:28:43.728Z,100800.19
2022-09-10T19:31:32.738Z,100799.75
2022-09-10T19:34:21.724Z,100809.16
2022-09-10T19:37:09.688Z,100811.50
2022-09-10T19:39:57.301Z,100824.72
2022-09-10T19:42:44.525Z,100827.59
2022-09-10T19:45:32.179Z,100828.19
2022-09-10T19:48:19.850Z,100834.16
2022-09-10T19:51:10.345Z,100833.31
2022-09-10T19:53:59.362Z,100836.88
2022-09-10T19:56:46.592Z,100841.28
2022-09-10T19:59:33.799Z,100846.34
2022-09-10T20:02:21.028Z,100851.59
2022-09-10T20:05:09.042Z,100850.91
2022-09-10T20:07:56.253Z,100849.03
2022-09-10T20:10:51.754Z,100852.22
2022-09-10T20:13:38.965Z,100860.69
2022-09-10T20:16:26.343Z,100866.66
2022-09-10T20:19:18.013Z,100852.81
2022-09-10T20:22:05.223Z,100854.03
2022-09-10T20:24:52.427Z,100854.47
2022-09-10T20:27:39.649Z,100861.00
2022-09-10T20:30:26.852Z,100862.44
2022-09-10T20:33:15.496Z,100871.31
2022-09-10T20:36:03.914Z,100872.41
2022-09-10T20:38:52.257Z,100862.53
2022-09-10T20:41:40.011Z,100866.34
2022-09-10T20:44:27.301Z,100868.91
2022-09-10T20:47:14.653Z,100881.06
2022-09-10T20:50:01.991Z,100881.28
2022-09-10T20:52:49.186Z,100858.78
2022-09-10T20:55:36.423Z,100881.66
2022-09-10T20:58:24.866Z,100892.44
2022-09-10T21:01:20.172Z,100883.47
2022-09-10T21:04:07.544Z,100896.69
2022-09-10T21:06:55.161Z,100901.56
2022-09-10T21:09:42.490Z,100889.59
2022-09-10T21:12:29.707Z,100906.41
2022-09-10T21:15:16.932Z,100894.25
2022-09-10T21:18:04.309Z,100900.63
2022-09-10T21:20:52.005Z,100909.41
2022-09-10T21:23:43.320Z,100905.00
2022-09-10T21:26:34.230Z,100913.16
2022-09-10T21:29:22.186Z,100922.19
2022-09-10T21:32:09.876Z,100914.41
2022-09-10T21:34:57.096Z,100927.03
2022-09-10T21:37:44.306Z,100925.75
2022-09-10T21:40:32.140Z,100931.22
2022-09-10T21:43:19.462Z,100933.31
2022-09-10T21:46:07.041Z,100930.00
2022-09-10T21:48:55.517Z,100925.44
2022-09-10T21:51:43.220Z,100935.06
2022-09-10T21:54:30.480Z,100940.94
2022-09-10T21:57:17.710Z,100944.47
2022-09-10T22:00:06.416Z,100941.16
2022-09-10T22:02:57.390Z,100941.31
2022-09-10T22:05:44.831Z,100941.75
2022-09-10T22:08:33.290Z,100938.78
2022-09-10T22:11:30.131Z,100946.41
2022-09-10T22:14:20.824Z,100943.44
2022-09-10T22:17:08.104Z,100951.88
2022-09-10T22:19:55.332Z,100947.66
2022-09-10T22:22:44.067Z,100951.25
2022-09-10T22:25:32.786Z,100942.88
2022-09-10T22:28:21.170Z,100938.09
2022-09-10T22:31:12.859Z,100942.25
2022-09-10T22:34:05.221Z,100947.28
2022-09-10T22:36:52.485Z,100955.72
2022-09-10T22:39:40.356Z,100958.88
2022-09-10T22:42:27.588Z,100960.09
2022-09-10T22:45:14.813Z,100961.38
2022-09-10T22:48:02.218Z,100965.41
2022-09-10T22:50:49.757Z,100963.13
2022-09-10T22:53:38.400Z,100974.91
2022-09-10T22:56:27.172Z,100966.69
2022-09-10T22:59:15.591Z,100967.34
2022-09-10T23:02:04.665Z,100973.03
2022-09-10T23:04:51.900Z,100973.88
2022-09-10T23:07:39.097Z,100988.16
2022-09-10T23:10:26.615Z,100980.69
2022-09-10T23:13:13.847Z,100988.22
2022-09-10T23:16:01.163Z,100992.81
2022-09-10T23:18:50.807Z,100997.44
2022-09-10T23:21:41.414Z,100998.28
2022-09-10T23:24:28.678Z,100988.03
2022-09-10T23:27:15.889Z,101000.16
2022-09-10T23:30:03.451Z,101000.81
2022-09-10T23:32:51.047Z,101004.19
2022-09-10T23:35:38.255Z,101014.28
2022-09-10T23:38:25.985Z,101007.34
2022-09-10T23:41:15.932Z,101007.78
2022-09-10T23:44:03.769Z,101004.91
2022-09-10T23:46:51.039Z,100994.19
2022-09-10T23:49:38.297Z,101011.84
2022-09-10T23:52:26.938Z,101016.91
2022-09-10T23:55:14.198Z,101018.75
2022-09-10T23:58:01.915Z,101015.88
